sensor_id;sensor_type;location;lat;lon;timestamp;pressure;altitude;pressure_sealevel;temperature;humidity
41945;BME280;63122;52.424;13.458;2024-01-07T01:06:19;101231.94;;;-1.12;100.00
41945;BME280;63122;52.424;13.458;2024-01-07T01:08:14;101231.91;;;-1.10;100.00
41945;BME280;63122;52.424;13.458;2024-01-07T01:10:10;101228.56;;;-1.14;100.00
41945;BME280;63122;52.424;13.458;2024-01-07T01:12:07;101231.28;;;-1.17;100.00
41945;BME280;63122;52.424;13.458;2024-01-07T01:14:02;101236.47;;;-1.17;100.00
41945;BME280;63122;52.424;13.458;2024-01-07T01:15:57;101234.88;;;-1.20;100.00
41945;BME280;63122;52.424;13.458;2024-01-07T01:17:53;101236.84;;;-1.26;100.00
41945;BME280;63122;52.424;13.458;2024-01-07T01:19:48;101246.44;;;-1.28;100.00
41945;BME280;63122;52.424;13.458;2024-01-07T01:21:46;101246.25;;;-1.24;100.00
41945;BME280;63122;52.424;13.458;2024-01-07T01:23:41;101252.25;;;-1.23;100.00
41945;BME280;63122;52.424;13.458;2024-01-07T01:25:37;101248.03;;;-1.26;100.00
41945;BME280;63122;52.424;13.458;2024-01-07T01:27:32;101254.31;;;-1.32;100.00
41945;BME280;63122;52.424;13.458;2024-01-07T01:29:28;101256.81;;;-1.30;100.00
41945;BME280;63122;52.424;13.458;2024-01-07T01:31:23;101260.31;;;-1.31;100.00
41945;BME280;63122;52.424;13.458;2024-01-07T01:33:19;101267.97;;;-1.28;100.00
41945;BME280;63122;52.424;13.458;2024-01-07T01:35:12;101264.41;;;-1.25;100.00
41945;BME280;63122;52.424;13.458;2024-01-07T01:37:10;101262.84;;;-1.29;100.00
41945;BME280;63122;52.424;13.458;2024-01-07T01:39:06;101267.78;;;-1.23;100.00
41945;BME280;63122;52.424;13.458;2024-01-07T01:41:01;101267.06;;;-1.27;100.00
41945;BME280;63122;52.424;13.458;2024-01-07T01:42:57;101272.31;;;-1.28;100.00
41945;BME280;63122;52.424;13.458;2024-01-07T01:44:52;101271.78;;;-1.37;100.00
41945;BME280;63122;52.424;13.458;2024-01-07T01:46:52;101269.53;;;-1.46;100.00
41945;BME280;63122;52.424;13.458;2024-01-07T01:48:47;101271.22;;;-1.45;100.00
41945;BME280;63122;52.424;13.458;2024-01-07T01:50:42;101275.34;;;-1.41;100.00
41945;BME280;63122;52.424;13.458;2024-01-07T01:52:41;101279.09;;;-1.48;100.00
41945;BME280;63122;52.424;13.458;2024-01-07T01:54:34;101280.72;;;-1.46;100.00
41945;BME280;63122;52.424;13.458;2024-01-07T01:56:31;101276.22;;;-1.40;100.00
41945;BME280;63122;52.424;13.458;2024-01-07T01:58:28;101277.13;;;-1.41;100.00
41945;BME280;63122;52.424;13.458;2024-01-07T02:01:13;101282.28;;;-1.41;100.00
41945;BME280;63122;52.424;13.458;2024-01-07T02:04:35;101279.88;;;-1.46;100.00
41945;BME280;63122;52.424;13.458;2024-01-07T02:52:12;101309.97;;;-1.91;100.00
41945;BME280;63122;52.424;13.458;2024-01-07T02:54:07;101324.19;;;-2.03;100.00
41945;BME280;63122;52.424;13.458;2024-01-07T02:56:04;101318.91;;;-2.00;100.00
41945;BME280;63122;52.424;13.458;2024-01-07T02:58:01;101323.13;;;-1.97;100.00
41945;BME280;63122;52.424;13.458;2024-01-07T02:59:54;101330.09;;;-1.99;100.00
41945;BME280;63122;52.424;13.458;2024-01-07T03:01:49;101331.81;;;-1.98;100.00
41945;BME280;63122;52.424;13.458;2024-01-07T03:03:45;101335.31;;;-2.01;100.00
41945;BME280;63122;52.424;13.458;2024-01-07T03:05:40;101332.16;;;-2.09;100.00
41945;BME280;63122;52.424;13.458;2024-01-07T03:07:40;101316.63;;;-2.08;100.00
41945;BME280;63122;52.424;13.458;2024-01-07T03:09:35;101321.16;;;-2.14;100.00
41945;BME280;63122;52.424;13.458;2024-01-07T03:11:30;101333.09;;;-2.12;100.00
41945;BME280;63122;52.424;13.458;2024-01-07T03:13:23;101334.88;;;-2.12;100.00
41945;BME280;63122;52.424;13.458;2024-01-07T03:15:18;101339.19;;;-2.13;100.00
41945;BME280;63122;52.424;13.458;2024-01-07T03:17:14;101340.06;;;-2.14;100.00
41945;BME280;63122;52.424;13.458;2024-01-07T03:19:09;101340.06;;;-2.14;100.00
41945;BME280;63122;52.424;13.458;2024-01-07T03:21:04;101339.53;;;-2.24;100.00
41945;BME280;63122;52.424;13.458;2024-01-07T03:23:03;101338.03;;;-2.29;100.00
41945;BME280;63122;52.424;13.458;2024-01-07T03:24:55;101348.38;;;-2.29;100.00
41945;BME280;63122;52.424;13.458;2024-01-07T03:26:51;101341.41;;;-2.27;100.00
41945;BME280;63122;52.424;13.458;2024-01-07T03:28:44;101350.94;;;-2.29;100.00
41945;BME280;63122;52.424;13.458;2024-01-07T03:30:39;101350.94;;;-2.29;100.00
41945;BME280;63122;52.424;13.458;2024-01-07T03:32:32;101347.47;;;-2.28;100.00
41945;BME280;63122;52.424;13.458;2024-01-07T03:34:27;101360.44;;;-2.30;100.00
41945;BME280;63122;52.424;13.458;2024-01-07T03:36:23;101342.81;;;-2.44;100.00
41945;BME280;63122;52.424;13.458;2024-01-07T03:38:21;101352.13;;;-2.40;100.00
41945;BME280;63122;52.424;13.458;2024-01-07T03:40:17;101358.84;;;-2.34;100.00
41945;BME280;63122;52.424;13.458;2024-01-07T03:42:13;101364.09;;;-2.36;100.00
41945;BME280;63122;52.424;13.458;2024-01-07T03:44:08;101363.25;;;-2.38;100.00
41945;BME280;63122;52.424;13.458;2024-01-07T03:46:04;101367.06;;;-2.48;100.00
41945;BME280;63122;52.424;13.458;2024-01-07T03:48:00;101364.44;;;-2.47;100.00
41945;BME280;63122;52.424;13.458;2024-01-07T03:49:56;101362.69;;;-2.46;100.00
41945;BME280;63122;52.424;13.458;2024-01-07T03:51:48;101363.09;;;-2.58;100.00
41945;BME280;63122;52.424;13.458;2024-01-07T03:53:47;101368.84;;;-2.50;100.00
41945;BME280;63122;52.424;13.458;2024-01-07T03:55:43;101374.88;;;-2.50;100.00
41945;BME280;63122;52.424;13.458;2024-01-07T03:57:36;101379.16;;;-2.49;100.00
41945;BME280;63122;52.424;13.458;2024-01-07T03:59:31;101375.91;;;-2.55;100.00
41945;BME280;63122;52.424;13.458;2024-01-07T04:01:24;101384.47;;;-2.53;100.00
41945;BME280;63122;52.424;13.458;2024-01-07T04:03:20;101380.97;;;-2.52;100.00
41945;BME280;63122;52.424;13.458;2024-01-07T04:05:16;101391.44;;;-2.57;100.00
41945;BME280;63122;52.424;13.458;2024-01-07T04:07:09;101394.91;;;-2.56;100.00
41945;BME280;63122;52.424;13.458;2024-01-07T04:09:07;101396.59;;;-2.55;100.00
41945;BME280;63122;52.424;13.458;2024-01-07T04:11:02;101402.66;;;-2.56;100.00
41945;BME280;63122;52.424;13.458;2024-01-07T04:12:58;101410.44;;;-2.58;100.00
41945;BME280;63122;52.424;13.458;2024-01-07T04:14:54;101408.72;;;-2.57;100.00
41945;BME280;63122;52.424;13.458;2024-01-07T04:16:47;101414.78;;;-2.58;100.00
41945;BME280;63122;52.424;13.458;2024-01-07T04:18:42;101416.66;;;-2.64;100.00
41945;BME280;63122;52.424;13.458;2024-01-07T04:20:44;101418.34;;;-2.63;100.00
41945;BME280;63122;52.424;13.458;2024-01-07T04:22:40;101409.75;;;-2.63;100.00
41945;BME280;63122;52.424;13.458;2024-01-07T04:24:35;101416.03;;;-2.72;100.00
41945;BME280;63122;52.424;13.458;2024-01-07T04:26:31;101421.16;;;-2.70;100.00
41945;BME280;63122;52.424;13.458;2024-01-07T04:28:24;101425.44;;;-2.69;100.00
41945;BME280;63122;52.424;13.458;2024-01-07T04:30:22;101428.03;;;-2.71;100.00
41945;BME280;63122;52.424;13.458;2024-01-07T04:32:18;101426.47;;;-2.75;100.00
41945;BME280;63122;52.424;13.458;2024-01-07T04:34:14;101425.56;;;-2.74;100.00
41945;BME280;63122;52.424;13.458;2024-01-07T04:36:10;101429.00;;;-2.73;100.00
41945;BME280;63122;52.424;13.458;2024-01-07T04:38:06;101431.63;;;-2.75;100.00
41945;BME280;63122;52.424;13.458;2024-01-07T04:40:02;101425.72;;;-2.79;100.00
41945;BME280;63122;52.424;13.458;2024-01-07T04:41:58;101435.19;;;-2.79;100.00
41945;BME280;63122;52.424;13.458;2024-01-07T04:43:54;101424.09;;;-2.83;100.00
41945;BME280;63122;52.424;13.458;2024-01-07T04:45:52;101440.34;;;-2.79;100.00
41945;BME280;63122;52.424;13.458;2024-01-07T04:47:48;101434.41;;;-2.81;100.00
41945;BME280;63122;52.424;13.458;2024-01-07T04:49:43;101434.69;;;-2.91;100.00
41945;BME280;63122;52.424;13.458;2024-01-07T04:51:36;101437.97;;;-2.85;100.00
41945;BME280;63122;52.424;13.458;2024-01-07T04:53:31;101439.66;;;-2.84;100.00
41945;BME280;63122;52.424;13.458;2024-01-07T04:55:27;101435.38;;;-2.85;100.00
41945;BME280;63122;52.424;13.458;2024-01-07T04:57:22;101444.81;;;-2.84;100.00
41945;BME280;63122;52.424;13.458;2024-01-07T04:59:18;101440.50;;;-2.84;100.00
41945;BME280;63122;52.424;13.458;2024-01-07T05:01:13;101431.94;;;-2.86;100.00
41945;BME280;63122;52.424;13.458;2024-01-07T05:03:08;101439.66;;;-2.84;100.00
41945;BME280;63122;52.424;13.458;2024-01-07T05:05:01;101436.31;;;-2.88;100.00
41945;BME280;63122;52.424;13.458;2024-01-07T05:06:56;101434.53;;;-2.86;100.00
41945;BME280;63122;52.424;13.458;2024-01-07T05:08:52;101443.06;;;-2.84;100.00
41945;BME280;63122;52.424;13.458;2024-01-07T05:10:50;101446.50;;;-2.83;100.00
41945;BME280;63122;52.424;13.458;2024-01-07T05:12:42;101447.31;;;-2.81;100.00
41945;BME280;63122;52.424;13.458;2024-01-07T05:14:38;101444.75;;;-2.83;100.00
41945;BME280;63122;52.424;13.458;2024-01-07T05:16:30;101447.31;;;-2.81;100.00
41945;BME280;63122;52.424;13.458;2024-01-07T05:18:26;101449.09;;;-2.83;100.00
41945;BME280;63122;52.424;13.458;2024-01-07T05:20:19;101454.25;;;-2.83;100.00
41945;BME280;63122;52.424;13.458;2024-01-07T05:22:15;101468.00;;;-2.83;100.00
41945;BME280;63122;52.424;13.458;2024-01-07T05:24:10;101457.84;;;-2.87;100.00
41945;BME280;63122;52.424;13.458;2024-01-07T05:26:08;101465.59;;;-2.89;100.00
41945;BME280;63122;52.424;13.458;2024-01-07T05:28:00;101464.78;;;-2.90;100.00
41945;BME280;63122;52.424;13.458;2024-01-07T05:29:56;101463.88;;;-2.88;100.00
41945;BME280;63122;52.424;13.458;2024-01-07T05:31:51;101470.84;;;-2.91;100.00
41945;BME280;63122;52.424;13.458;2024-01-07T05:33:47;101475.94;;;-2.89;100.00
41945;BME280;63122;52.424;13.458;2024-01-07T05:35:42;101479.53;;;-2.95;100.00
41945;BME280;63122;52.424;13.458;2024-01-07T05:37:37;101485.53;;;-2.93;100.00
41945;BME280;63122;52.424;13.458;2024-01-07T05:39:30;101477.03;;;-2.98;100.00
41945;BME280;63122;52.424;13.458;2024-01-07T05:41:28;101484.94;;;-3.02;100.00
41945;BME280;63122;52.424;13.458;2024-01-07T05:43:23;101491.09;;;-3.07;100.00
41945;BME280;63122;52.424;13.458;2024-01-07T05:45:19;101498.66;;;-3.00;100.00
41945;BME280;63122;52.424;13.458;2024-01-07T05:47:14;101501.22;;;-3.00;100.00
41945;BME280;63122;52.424;13.458;2024-01-07T05:49:10;101494.31;;;-3.00;100.00
41945;BME280;63122;52.424;13.458;2024-01-07T05:51:05;101497.88;;;-3.04;100.00
41945;BME280;63122;52.424;13.458;2024-01-07T05:53:01;101503.03;;;-3.02;100.00
41945;BME280;63122;52.424;13.458;2024-01-07T05:54:56;101502.13;;;-3.01;100.00
41945;BME280;63122;52.424;13.458;2024-01-07T05:56:54;101499.47;;;-3.00;100.00
41945;BME280;63122;52.424;13.458;2024-01-07T05:58:50;101497.88;;;-3.04;100.00
41945;BME280;63122;52.424;13.458;2024-01-07T06:00:45;101509.06;;;-3.04;100.00
41945;BME280;63122;52.424;13.458;2024-01-07T06:02:41;101514.16;;;-3.02;100.00
41945;BME280;63122;52.424;13.458;2024-01-07T06:04:34;101507.44;;;-3.08;100.00
41945;BME280;63122;52.424;13.458;2024-01-07T06:06:29;101515.13;;;-3.05;100.00
41945;BME280;63122;52.424;13.458;2024-01-07T06:08:27;101502.25;;;-3.06;100.00
41945;BME280;63122;52.424;13.458;2024-01-07T06:10:22;101509.00;;;-3.02;100.00
41945;BME280;63122;52.424;13.458;2024-01-07T06:12:17;101516.03;;;-3.07;100.00
41945;BME280;63122;52.424;13.458;2024-01-07T06:14:12;101528.31;;;-3.15;100.00
41945;BME280;63122;52.424;13.458;2024-01-07T06:16:08;101522.13;;;-3.10;100.00
41945;BME280;63122;52.424;13.458;2024-01-07T06:18:04;101524.59;;;-3.05;100.00
41945;BME280;63122;52.424;13.458;2024-01-07T06:20:00;101527.97;;;-3.03;100.00
41945;BME280;63122;52.424;13.458;2024-01-07T06:21:55;101534.81;;;-3.00;100.00
41945;BME280;63122;52.424;13.458;2024-01-07T06:23:51;101523.59;;;-2.99;100.00
41945;BME280;63122;52.424;13.458;2024-01-07T06:25:46;101533.84;;;-2.98;100.00
41945;BME280;63122;52.424;13.458;2024-01-07T06:27:44;101536.69;;;-3.07;100.00
41945;BME280;63122;52.424;13.458;2024-01-07T06:29:39;101536.81;;;-3.12;100.00
41945;BME280;63122;52.424;13.458;2024-01-07T06:31:35;101536.88;;;-3.13;100.00
41945;BME280;63122;52.424;13.458;2024-01-07T06:33:28;101538.47;;;-3.09;100.00
41945;BME280;63122;52.424;13.458;2024-01-07T06:35:23;101547.94;;;-3.10;100.00
41945;BME280;63122;52.424;13.458;2024-01-07T06:37:16;101549.56;;;-3.06;100.00
41945;BME280;63122;52.424;13.458;2024-01-07T06:39:12;101550.31;;;-3.02;100.00
41945;BME280;63122;52.424;13.458;2024-01-07T06:41:09;101553.72;;;-3.00;100.00
41945;BME280;63122;52.424;13.458;2024-01-07T06:43:08;101547.81;;;-3.04;100.00
41945;BME280;63122;52.424;13.458;2024-01-07T06:45:04;101552.06;;;-3.02;100.00
41945;BME280;63122;52.424;13.458;2024-01-07T06:47:00;101546.81;;;-2.99;100.00
41945;BME280;63122;52.424;13.458;2024-01-07T06:48:56;101557.19;;;-3.01;100.00
41945;BME280;63122;52.424;13.458;2024-01-07T06:50:51;101552.00;;;-3.01;100.00
41945;BME280;63122;52.424;13.458;2024-01-07T06:52:46;101553.72;;;-3.00;100.00
41945;BME280;63122;52.424;13.458;2024-01-07T06:54:42;101557.97;;;-2.99;100.00
41945;BME280;63122;52.424;13.458;2024-01-07T06:56:37;101563.16;;;-2.99;100.00
41945;BME280;63122;52.424;13.458;2024-01-07T06:58:35;101561.44;;;-2.98;100.00
41945;BME280;63122;52.424;13.458;2024-01-07T07:00:31;101563.19;;;-3.00;100.00
41945;BME280;63122;52.424;13.458;2024-01-07T07:02:24;101570.88;;;-2.99;100.00
41945;BME280;63122;52.424;13.458;2024-01-07T07:04:19;101569.28;;;-3.03;100.00
41945;BME280;63122;52.424;13.458;2024-01-07T07:06:13;101568.41;;;-3.02;100.00
41945;BME280;63122;52.424;13.458;2024-01-07T07:08:08;101566.69;;;-3.03;100.00
41945;BME280;63122;52.424;13.458;2024-01-07T07:10:04;101571.06;;;-3.05;100.00
41945;BME280;63122;52.424;13.458;2024-01-07T07:11:58;101567.56;;;-3.02;100.00
41945;BME280;63122;52.424;13.458;2024-01-07T07:13:57;101568.47;;;-3.05;100.00
41945;BME280;63122;52.424;13.458;2024-01-07T07:15:53;101570.97;;;-3.02;100.00
41945;BME280;63122;52.424;13.458;2024-01-07T07:17:46;101577.03;;;-3.03;100.00
41945;BME280;63122;52.424;13.458;2024-01-07T07:19:41;101571.84;;;-3.01;100.00
41945;BME280;63122;52.424;13.458;2024-01-07T07:21:37;101579.44;;;-2.97;100.00
41945;BME280;63122;52.424;13.458;2024-01-07T07:23:33;101578.59;;;-2.97;100.00
41945;BME280;63122;52.424;13.458;2024-01-07T07:25:28;101581.28;;;-3.00;100.00
41945;BME280;63122;52.424;13.458;2024-01-07T07:27:24;101583.78;;;-2.97;100.00
41945;BME280;63122;52.424;13.458;2024-01-07T07:29:20;101586.25;;;-2.93;100.00
41945;BME280;63122;52.424;13.458;2024-01-07T07:31:15;101590.66;;;-2.98;100.00
41945;BME280;63122;52.424;13.458;2024-01-07T07:33:17;101597.38;;;-2.91;100.00
41945;BME280;63122;52.424;13.458;2024-01-07T07:35:23;101596.41;;;-2.86;100.00
41945;BME280;63122;52.424;13.458;2024-01-07T07:37:38;101602.38;;;-2.84;100.00
41945;BME280;63122;52.424;13.458;2024-01-07T07:39:34;101604.88;;;-2.83;100.00
41945;BME280;63122;52.424;13.458;2024-01-07T07:41:29;101606.44;;;-2.76;100.00
41945;BME280;63122;52.424;13.458;2024-01-07T07:43:25;101606.53;;;-2.79;100.00
41945;BME280;63122;52.424;13.458;2024-01-07T07:45:23;101598.72;;;-2.77;100.00
41945;BME280;63122;52.424;13.458;2024-01-07T07:47:16;101604.69;;;-2.75;100.00
41945;BME280;63122;52.424;13.458;2024-01-07T07:49:13;101609.03;;;-2.76;100.00
41945;BME280;63122;52.424;13.458;2024-01-07T07:51:08;101609.75;;;-2.70;100.00
41945;BME280;63122;52.424;13.458;2024-01-07T07:53:04;101616.53;;;-2.68;100.00
41945;BME280;63122;52.424;13.458;2024-01-07T07:54:57;101614.81;;;-2.67;100.00
41945;BME280;63122;52.424;13.458;2024-01-07T07:56:52;101615.72;;;-2.70;100.00
41945;BME280;63122;52.424;13.458;2024-01-07T07:58:45;101623.47;;;-2.70;100.00
41945;BME280;63122;52.424;13.458;2024-01-07T08:00:44;101621.72;;;-2.68;100.00
41945;BME280;63122;52.424;13.458;2024-01-07T08:02:40;101625.09;;;-2.66;100.00
41945;BME280;63122;52.424;13.458;2024-01-07T08:07:56;101628.53;;;-2.65;100.00
41945;BME280;63122;52.424;13.458;2024-01-07T08:09:51;101632.72;;;-2.61;100.00
41945;BME280;63122;52.424;13.458;2024-01-07T08:11:49;101625.84;;;-2.61;100.00
41945;BME280;63122;52.424;13.458;2024-01-07T08:13:44;101632.59;;;-2.56;100.00
41945;BME280;63122;52.424;13.458;2024-01-07T08:15:42;101635.09;;;-2.53;100.00
41945;BME280;63122;52.424;13.458;2024-01-07T08:17:38;101642.75;;;-2.50;100.00
41945;BME280;63122;52.424;13.458;2024-01-07T08:19:35;101641.03;;;-2.50;100.00
41945;BME280;63122;52.424;13.458;2024-01-07T08:21:31;101644.53;;;-2.51;100.00
41945;BME280;63122;52.424;13.458;2024-01-07T08:23:27;101643.66;;;-2.51;100.00
41945;BME280;63122;52.424;13.458;2024-01-07T08:25:22;101639.28;;;-2.49;100.00
41945;BME280;63122;52.424;13.458;2024-01-07T08:27:16;101641.78;;;-2.46;100.00
41945;BME280;63122;52.424;13.458;2024-01-07T08:29:13;101638.19;;;-2.40;100.00
41945;BME280;63122;52.424;13.458;2024-01-07T08:34:29;101645.06;;;-2.39;100.00
41945;BME280;63122;52.424;13.458;2024-01-07T08:35:20;101648.44;;;-2.37;100.00
41945;BME280;63122;52.424;13.458;2024-01-07T08:37:19;101654.38;;;-2.34;100.00
41945;BME280;63122;52.424;13.458;2024-01-07T08:39:22;101656.09;;;-2.34;100.00
41945;BME280;63122;52.424;13.458;2024-01-07T08:41:15;101660.50;;;-2.38;100.00
41945;BME280;63122;52.424;13.458;2024-01-07T08:43:18;101665.63;;;-2.36;100.00
41945;BME280;63122;52.424;13.458;2024-01-07T08:45:17;101669.88;;;-2.34;100.00
41945;BME280;63122;52.424;13.458;2024-01-07T08:47:38;101672.50;;;-2.35;100.00
41945;BME280;63122;52.424;13.458;2024-01-07T08:50:11;101647.50;;;-2.35;100.00
41945;BME280;63122;52.424;13.458;2024-01-07T08:52:11;101652.59;;;-2.32;100.00
41945;BME280;63122;52.424;13.458;2024-01-07T08:54:11;101643.25;;;-2.37;100.00
41945;BME280;63122;52.424;13.458;2024-01-07T08:56:10;101644.03;;;-2.34;100.00
41945;BME280;63122;52.424;13.458;2024-01-07T08:58:16;101652.53;;;-2.30;100.00
41945;BME280;63122;52.424;13.458;2024-01-07T09:00:17;101656.19;;;-2.37;100.00
41945;BME280;63122;52.424;13.458;2024-01-07T09:02:28;101659.63;;;-2.37;100.00
41945;BME280;63122;52.424;13.458;2024-01-07T09:04:35;101660.38;;;-2.33;100.00
41945;BME280;63122;52.424;13.458;2024-01-07T09:06:34;101650.91;;;-2.33;100.00
41945;BME280;63122;52.424;13.458;2024-01-07T09:08:36;101653.34;;;-2.28;100.00
41945;BME280;63122;52.424;13.458;2024-01-07T09:10:52;101655.09;;;-2.28;100.00
41945;BME280;63122;52.424;13.458;2024-01-07T09:12:51;101653.25;;;-2.25;100.00
41945;BME280;63122;52.424;13.458;2024-01-07T09:15:23;101657.59;;;-2.27;100.00
41945;BME280;63122;52.424;13.458;2024-01-07T09:17:21;101666.13;;;-2.23;100.00
41945;BME280;63122;52.424;13.458;2024-01-07T09:19:15;101666.91;;;-2.20;100.00
41945;BME280;63122;52.424;13.458;2024-01-07T09:21:14;101665.13;;;-2.18;100.00
41945;BME280;63122;52.424;13.458;2024-01-07T09:23:10;101668.59;;;-2.19;100.00
41945;BME280;63122;52.424;13.458;2024-01-07T09:25:09;101665.06;;;-2.16;100.00
41945;BME280;63122;52.424;13.458;2024-01-07T09:27:08;101665.91;;;-2.15;100.00
41945;BME280;63122;52.424;13.458;2024-01-07T09:29:29;101668.34;;;-2.11;100.00
41945;BME280;63122;52.424;13.458;2024-01-07T09:31:57;101668.31;;;-2.09;100.00
41945;BME280;63122;52.424;13.458;2024-01-07T09:34:12;101664.75;;;-2.05;100.00
41945;BME280;63122;52.424;13.458;2024-01-07T09:36:19;101669.09;;;-2.06;100.00
41945;BME280;63122;52.424;13.458;2024-01-07T09:38:35;101661.38;;;-2.07;100.00
41945;BME280;63122;52.424;13.458;2024-01-07T09:40:40;101669.91;;;-2.05;100.00
41945;BME280;63122;52.424;13.458;2024-01-07T09:42:36;101663.91;;;-2.06;100.00
41945;BME280;63122;52.424;13.458;2024-01-07T09:44:28;101669.91;;;-2.05;100.00
41945;BME280;63122;52.424;13.458;2024-01-07T09:46:24;101657.75;;;-2.01;100.00
41945;BME280;63122;52.424;13.458;2024-01-07T09:48:17;101655.09;;;-2.00;100.00
41945;BME280;63122;52.424;13.458;2024-01-07T09:50:13;101660.13;;;-1.94;100.00
41945;BME280;63122;52.424;13.458;2024-01-07T09:52:11;101661.06;;;-1.96;100.00
41945;BME280;63122;52.424;13.458;2024-01-07T09:54:08;101657.56;;;-1.95;100.00
41945;BME280;63122;52.424;13.458;2024-01-07T09:56:12;101660.94;;;-1.93;100.00
41945;BME280;63122;52.424;13.458;2024-01-07T09:58:14;101661.75;;;-1.91;100.00
41945;BME280;63122;52.424;13.458;2024-01-07T10:00:11;101662.53;;;-1.89;100.00
41945;BME280;63122;52.424;13.458;2024-01-07T10:02:27;101656.47;;;-1.88;100.00
41945;BME280;63122;52.424;13.458;2024-01-07T10:04:23;101659.88;;;-1.86;100.00
41945;BME280;63122;52.424;13.458;2024-01-07T10:06:20;101653.06;;;-1.89;100.00
41945;BME280;63122;52.424;13.458;2024-01-07T10:08:18;101663.34;;;-1.87;100.00
41945;BME280;63122;52.424;13.458;2024-01-07T10:10:15;101665.94;;;-1.87;100.00
41945;BME280;63122;52.424;13.458;2024-01-07T10:12:11;101672.78;;;-1.84;100.00
41945;BME280;63122;52.424;13.458;2024-01-07T10:14:07;101677.84;;;-1.81;100.00
41945;BME280;63122;52.424;13.458;2024-01-07T10:15:59;101668.50;;;-1.85;100.00
41945;BME280;63122;52.424;13.458;2024-01-07T10:17:55;101665.84;;;-1.84;100.00
41945;BME280;63122;52.424;13.458;2024-01-07T10:19:57;101663.31;;;-1.85;100.00
41945;BME280;63122;52.424;13.458;2024-01-07T10:22:03;101670.13;;;-1.83;100.00
41945;BME280;63122;52.424;13.458;2024-01-07T10:24:10;101660.66;;;-1.84;100.00
41945;BME280;63122;52.424;13.458;2024-01-07T10:26:06;101663.25;;;-1.84;100.00
41945;BME280;63122;52.424;13.458;2024-01-07T10:28:14;101656.44;;;-1.86;100.00
41945;BME280;63122;52.424;13.458;2024-01-07T10:33:42;101662.44;;;-1.86;100.00
41945;BME280;63122;52.424;13.458;2024-01-07T10:35:41;101668.28;;;-1.79;100.00
41945;BME280;63122;52.424;13.458;2024-01-07T10:37:38;101672.63;;;-1.80;100.00
41945;BME280;63122;52.424;13.458;2024-01-07T10:39:40;101669.16;;;-1.79;100.00
41945;BME280;63122;52.424;13.458;2024-01-07T10:41:37;101670.78;;;-1.76;100.00
41945;BME280;63122;52.424;13.458;2024-01-07T10:43:36;101664.78;;;-1.77;100.00
41945;BME280;63122;52.424;13.458;2024-01-07T10:45:53;101659.50;;;-1.74;100.00
41945;BME280;63122;52.424;13.458;2024-01-07T10:48:31;101652.41;;;-1.67;100.00
41945;BME280;63122;52.424;13.458;2024-01-07T10:50:30;101659.28;;;-1.66;100.00
41945;BME280;63122;52.424;13.458;2024-01-07T11:00:57;101658.97;;;-1.56;100.00
41945;BME280;63122;52.424;13.458;2024-01-07T11:03:18;101654.72;;;-1.59;100.00
41945;BME280;63122;52.424;13.458;2024-01-07T11:05:47;101645.34;;;-1.62;100.00
41945;BME280;63122;52.424;13.458;2024-01-07T11:07:53;101653.94;;;-1.61;100.00
41945;BME280;63122;52.424;13.458;2024-01-07T11:10:41;101641.78;;;-1.59;100.00
41945;BME280;63122;52.424;13.458;2024-01-07T11:13:00;101646.03;;;-1.56;100.00
41945;BME280;63122;52.424;13.458;2024-01-07T11:16:08;101657.16;;;-1.53;100.00
41945;BME280;63122;52.424;13.458;2024-01-07T11:18:50;101648.63;;;-1.56;100.00
41945;BME280;63122;52.424;13.458;2024-01-07T11:24:40;101650.34;;;-1.57;100.00
41945;BME280;63122;52.424;13.458;2024-01-07T11:26:39;101649.38;;;-1.53;100.00
41945;BME280;63122;52.424;13.458;2024-01-07T11:28:49;101653.59;;;-1.50;100.00
41945;BME280;63122;52.424;13.458;2024-01-07T11:30:54;101645.00;;;-1.51;100.00
41945;BME280;63122;52.424;13.458;2024-01-07T11:32:58;101644.84;;;-1.46;100.00
41945;BME280;63122;52.424;13.458;2024-01-07T11:34:56;101645.72;;;-1.47;100.00
41945;BME280;63122;52.424;13.458;2024-01-07T11:36:59;101644.81;;;-1.45;100.00
41945;BME280;63122;52.424;13.458;2024-01-07T11:38:59;101646.50;;;-1.43;100.00
41945;BME280;63122;52.424;13.458;2024-01-07T11:41:03;101644.81;;;-1.45;100.00
41945;BME280;63122;52.424;13.458;2024-01-07T11:45:16;101637.59;;;-1.35;100.00
41945;BME280;63122;52.424;13.458;2024-01-07T11:47:13;101628.91;;;-1.34;100.00
41945;BME280;63122;52.424;13.458;2024-01-07T11:49:09;101634.78;;;-1.28;100.00
41945;BME280;63122;52.424;13.458;2024-01-07T11:51:04;101635.78;;;-1.33;100.00
41945;BME280;63122;52.424;13.458;2024-01-07T11:53:00;101632.34;;;-1.33;100.00
41945;BME280;63122;52.424;13.458;2024-01-07T11:54:53;101634.88;;;-1.32;100.00
41945;BME280;63122;52.424;13.458;2024-01-07T11:56:49;101637.47;;;-1.32;100.00
41945;BME280;63122;52.424;13.458;2024-01-07T11:58:41;101636.47;;;-1.27;100.00
41945;BME280;63122;52.424;13.458;2024-01-07T12:00:40;101634.69;;;-1.25;100.00
41945;BME280;63122;52.424;13.458;2024-01-07T12:02:35;101636.38;;;-1.24;100.00
41945;BME280;63122;52.424;13.458;2024-01-07T12:04:29;101635.53;;;-1.25;100.00
41945;BME280;63122;52.424;13.458;2024-01-07T12:06:24;101638.13;;;-1.25;100.00
41945;BME280;63122;52.424;13.458;2024-01-07T12:08:22;101635.44;;;-1.22;100.00
41945;BME280;63122;52.424;13.458;2024-01-07T12:10:18;101634.56;;;-1.22;100.00
41945;BME280;63122;52.424;13.458;2024-01-07T12:12:14;101633.75;;;-1.23;100.00
41945;BME280;63122;52.424;13.458;2024-01-07T12:14:12;101627.81;;;-1.26;100.00
41945;BME280;63122;52.424;13.458;2024-01-07T12:16:11;101624.28;;;-1.24;100.00
41945;BME280;63122;52.424;13.458;2024-01-07T12:18:09;101619.16;;;-1.25;100.00
41945;BME280;63122;52.424;13.458;2024-01-07T12:20:06;101625.97;;;-1.23;100.00